sensor_id;sensor_type;location;lat;lon;timestamp;pressure;altitude;pressure_sealevel;temperature;humidity
50105;BME280;47690;39.202;-77.198;2023-03-13T00:02:23;99934.75;;;32.19;10.60
50105;BME280;47690;39.202;-77.198;2023-03-13T00:04:53;99933.75;;;32.20;10.45
50105;BME280;47690;39.202;-77.198;2023-03-13T00:07:22;99916.41;;;32.24;10.79
50105;BME280;47690;39.202;-77.198;2023-03-13T00:09:50;99920.91;;;32.23;10.14
50105;BME280;47690;39.202;-77.198;2023-03-13T00:12:19;99922.41;;;32.26;11.05
50105;BME280;47690;39.202;-77.198;2023-03-13T00:14:48;99927.84;;;32.33;10.44
50105;BME280;47690;39.202;-77.198;2023-03-13T00:17:16;99925.25;;;32.16;10.77
50105;BME280;47690;39.202;-77.198;2023-03-13T00:19:49;99921.78;;;32.15;10.50
50105;BME280;47690;39.202;-77.198;2023-03-13T00:22:18;99919.94;;;32.16;10.53
50105;BME280;47690;39.202;-77.198;2023-03-13T00:24:47;99915.63;;;32.15;10.95
50105;BME280;47690;39.202;-77.198;2023-03-13T00:27:15;99915.25;;;32.18;10.97
50105;BME280;47690;39.202;-77.198;2023-03-13T00:29:44;99916.63;;;32.14;10.92
50105;BME280;47690;39.202;-77.198;2023-03-13T00:32:13;99906.34;;;32.02;11.02
50105;BME280;47690;39.202;-77.198;2023-03-13T00:34:43;99919.97;;;32.08;11.22
50105;BME280;47690;39.202;-77.198;2023-03-13T00:37:14;99908.53;;;32.39;10.81
50105;BME280;47690;39.202;-77.198;2023-03-13T00:39:43;99910.25;;;32.23;10.44
50105;BME280;47690;39.202;-77.198;2023-03-13T00:42:12;99905.69;;;32.40;10.81
50105;BME280;47690;39.202;-77.198;2023-03-13T00:44:43;99906.84;;;32.38;10.41
50105;BME280;47690;39.202;-77.198;2023-03-13T00:47:12;99910.56;;;32.28;10.54
50105;BME280;47690;39.202;-77.198;2023-03-13T00:49:42;99898.59;;;32.24;10.65
50105;BME280;47690;39.202;-77.198;2023-03-13T00:52:11;99902.34;;;32.47;10.72
50105;BME280;47690;39.202;-77.198;2023-03-13T00:54:40;99904.84;;;32.48;10.35
50105;BME280;47690;39.202;-77.198;2023-03-13T00:57:09;99915.19;;;32.35;10.84
50105;BME280;47690;39.202;-77.198;2023-03-13T00:59:38;99937.34;;;32.35;11.15
50105;BME280;47690;39.202;-77.198;2023-03-13T01:02:06;99921.53;;;32.42;10.88
50105;BME280;47690;39.202;-77.198;2023-03-13T01:04:35;99921.16;;;32.45;10.82
50105;BME280;47690;39.202;-77.198;2023-03-13T01:07:04;99916.31;;;32.49;10.62
50105;BME280;47690;39.202;-77.198;2023-03-13T01:09:33;99914.66;;;32.48;10.47
50105;BME280;47690;39.202;-77.198;2023-03-13T01:12:01;99919.03;;;32.40;10.60
50105;BME280;47690;39.202;-77.198;2023-03-13T01:14:30;99909.50;;;32.38;10.57
50105;BME280;47690;39.202;-77.198;2023-03-13T01:17:00;99906.56;;;32.24;11.03
50105;BME280;47690;39.202;-77.198;2023-03-13T01:19:28;99913.06;;;32.22;11.06
50105;BME280;47690;39.202;-77.198;2023-03-13T01:21:57;99922.59;;;32.16;10.98
50105;BME280;47690;39.202;-77.198;2023-03-13T01:24:26;99913.81;;;32.15;11.21
50105;BME280;47690;39.202;-77.198;2023-03-13T01:26:56;99913.47;;;32.10;11.14
50105;BME280;47690;39.202;-77.198;2023-03-13T01:29:27;99914.78;;;32.23;10.83
50105;BME280;47690;39.202;-77.198;2023-03-13T01:31:56;99921.91;;;32.22;11.06
50105;BME280;47690;39.202;-77.198;2023-03-13T01:34:28;99920.44;;;32.20;11.19
50105;BME280;47690;39.202;-77.198;2023-03-13T01:36:58;99916.59;;;32.22;11.23
50105;BME280;47690;39.202;-77.198;2023-03-13T01:39:27;99917.06;;;32.26;11.06
50105;BME280;47690;39.202;-77.198;2023-03-13T01:41:57;99915.38;;;32.33;10.79
50105;BME280;47690;39.202;-77.198;2023-03-13T01:44:26;99906.72;;;32.39;10.74
50105;BME280;47690;39.202;-77.198;2023-03-13T01:46:56;99902.50;;;32.45;11.08
50105;BME280;47690;39.202;-77.198;2023-03-13T01:49:46;99907.72;;;32.38;10.58
50105;BME280;47690;39.202;-77.198;2023-03-13T01:52:28;99908.72;;;32.29;11.03
50105;BME280;47690;39.202;-77.198;2023-03-13T01:55:15;99897.53;;;32.42;10.95
50105;BME280;47690;39.202;-77.198;2023-03-13T01:57:51;99893.22;;;32.41;11.42
50105;BME280;47690;39.202;-77.198;2023-03-13T02:00:26;99888.34;;;32.36;10.84
50105;BME280;47690;39.202;-77.198;2023-03-13T02:02:59;99890.53;;;32.33;10.89
50105;BME280;47690;39.202;-77.198;2023-03-13T02:05:34;99882.53;;;32.33;11.42
50105;BME280;47690;39.202;-77.198;2023-03-13T02:08:11;99886.06;;;32.33;10.76
50105;BME280;47690;39.202;-77.198;2023-03-13T02:10:52;99883.22;;;32.35;11.25
50105;BME280;47690;39.202;-77.198;2023-03-13T02:13:22;99886.22;;;32.32;10.82
50105;BME280;47690;39.202;-77.198;2023-03-13T02:15:51;99895.53;;;32.36;10.85
50105;BME280;47690;39.202;-77.198;2023-03-13T02:18:20;99896.06;;;32.31;11.00
50105;BME280;47690;39.202;-77.198;2023-03-13T02:20:50;99894.56;;;32.28;10.92
50105;BME280;47690;39.202;-77.198;2023-03-13T02:23:28;99896.56;;;32.35;10.87
50105;BME280;47690;39.202;-77.198;2023-03-13T02:25:59;99891.88;;;32.37;11.13
50105;BME280;47690;39.202;-77.198;2023-03-13T02:28:35;99888.69;;;32.41;10.66
50105;BME280;47690;39.202;-77.198;2023-03-13T02:31:11;99895.69;;;32.42;11.30
50105;BME280;47690;39.202;-77.198;2023-03-13T02:33:41;99890.22;;;32.36;10.74
50105;BME280;47690;39.202;-77.198;2023-03-13T02:36:16;99897.81;;;32.47;11.00
50105;BME280;47690;39.202;-77.198;2023-03-13T02:38:58;99896.31;;;32.53;11.12
50105;BME280;47690;39.202;-77.198;2023-03-13T02:41:30;99892.00;;;32.52;10.71
50105;BME280;47690;39.202;-77.198;2023-03-13T02:44:01;99889.81;;;32.47;10.67
50105;BME280;47690;39.202;-77.198;2023-03-13T02:46:29;99884.22;;;32.42;10.56
50105;BME280;47690;39.202;-77.198;2023-03-13T02:49:18;99881.06;;;32.62;10.80
50105;BME280;47690;39.202;-77.198;2023-03-13T02:51:47;99888.97;;;32.55;10.66
50105;BME280;47690;39.202;-77.198;2023-03-13T02:54:23;99882.94;;;32.61;11.36
50105;BME280;47690;39.202;-77.198;2023-03-13T02:56:59;99877.41;;;32.63;10.72
50105;BME280;47690;39.202;-77.198;2023-03-13T02:59:29;99885.94;;;32.58;10.81
50105;BME280;47690;39.202;-77.198;2023-03-13T03:01:58;99881.13;;;32.53;10.82
50105;BME280;47690;39.202;-77.198;2023-03-13T03:04:28;99892.47;;;32.55;11.00
50105;BME280;47690;39.202;-77.198;2023-03-13T03:06:58;99882.50;;;32.49;11.10
50105;BME280;47690;39.202;-77.198;2023-03-13T03:09:27;99882.78;;;32.54;11.14
50105;BME280;47690;39.202;-77.198;2023-03-13T03:12:01;99882.56;;;32.64;10.60
50105;BME280;47690;39.202;-77.198;2023-03-13T03:14:32;99877.13;;;32.58;10.87
50105;BME280;47690;39.202;-77.198;2023-03-13T03:17:01;99880.44;;;32.60;10.66
50105;BME280;47690;39.202;-77.198;2023-03-13T03:19:30;99885.94;;;32.58;11.28
50105;BME280;47690;39.202;-77.198;2023-03-13T03:22:00;99882.63;;;32.56;10.96
50105;BME280;47690;39.202;-77.198;2023-03-13T03:24:28;99887.41;;;32.61;11.50
50105;BME280;47690;39.202;-77.198;2023-03-13T03:26:58;99888.25;;;32.61;10.84
50105;BME280;47690;39.202;-77.198;2023-03-13T03:29:33;99882.03;;;32.69;10.63
50105;BME280;47690;39.202;-77.198;2023-03-13T03:32:03;99879.19;;;32.70;11.17
50105;BME280;47690;39.202;-77.198;2023-03-13T03:34:32;99880.97;;;32.78;11.15
50105;BME280;47690;39.202;-77.198;2023-03-13T03:37:01;99882.31;;;32.74;10.84
50105;BME280;47690;39.202;-77.198;2023-03-13T03:39:33;99883.63;;;33.02;10.67
50105;BME280;47690;39.202;-77.198;2023-03-13T03:42:02;99880.63;;;33.20;10.64
50105;BME280;47690;39.202;-77.198;2023-03-13T03:44:32;99883.97;;;33.22;10.84
50105;BME280;47690;39.202;-77.198;2023-03-13T03:47:03;99882.50;;;33.19;10.91
50105;BME280;47690;39.202;-77.198;2023-03-13T03:49:36;99886.03;;;33.50;10.69
50105;BME280;47690;39.202;-77.198;2023-03-13T03:52:05;99887.38;;;33.31;10.67
50105;BME280;47690;39.202;-77.198;2023-03-13T03:54:38;99885.91;;;33.28;10.41
50105;BME280;47690;39.202;-77.198;2023-03-13T03:57:07;99879.75;;;33.28;10.88
50105;BME280;47690;39.202;-77.198;2023-03-13T03:59:37;99881.94;;;33.24;10.91
50105;BME280;47690;39.202;-77.198;2023-03-13T04:02:08;99870.91;;;33.27;10.77
50105;BME280;47690;39.202;-77.198;2023-03-13T04:04:40;99876.25;;;33.27;10.91
50105;BME280;47690;39.202;-77.198;2023-03-13T04:07:21;99869.72;;;33.30;10.63
50105;BME280;47690;39.202;-77.198;2023-03-13T04:09:51;99867.41;;;33.27;10.86
50105;BME280;47690;39.202;-77.198;2023-03-13T04:12:27;99870.34;;;33.32;10.55
50105;BME280;47690;39.202;-77.198;2023-03-13T04:14:58;99866.66;;;33.18;10.77
50105;BME280;47690;39.202;-77.198;2023-03-13T04:17:27;99868.78;;;33.22;10.71
50105;BME280;47690;39.202;-77.198;2023-03-13T04:19:57;99868.88;;;33.29;10.88
50105;BME280;47690;39.202;-77.198;2023-03-13T04:22:28;99857.34;;;33.14;11.19
50105;BME280;47690;39.202;-77.198;2023-03-13T04:25:00;99859.53;;;33.10;10.89
50105;BME280;47690;39.202;-77.198;2023-03-13T04:27:32;99850.41;;;33.73;10.77
50105;BME280;47690;39.202;-77.198;2023-03-13T04:30:02;99851.97;;;33.22;11.16
50105;BME280;47690;39.202;-77.198;2023-03-13T04:32:32;99850.19;;;32.91;11.16
50105;BME280;47690;39.202;-77.198;2023-03-13T04:35:24;99851.19;;;32.90;11.28
50105;BME280;47690;39.202;-77.198;2023-03-13T04:38:11;99840.22;;;32.84;11.11
50105;BME280;47690;39.202;-77.198;2023-03-13T04:40:54;99847.25;;;32.86;11.28
50105;BME280;47690;39.202;-77.198;2023-03-13T04:43:42;99844.38;;;32.87;11.07
50105;BME280;47690;39.202;-77.198;2023-03-13T04:46:31;99839.75;;;32.81;10.97
50105;BME280;47690;39.202;-77.198;2023-03-13T04:49:14;99842.16;;;32.76;11.57
50105;BME280;47690;39.202;-77.198;2023-03-13T04:52:18;99844.69;;;32.92;10.87
50105;BME280;47690;39.202;-77.198;2023-03-13T04:55:11;99838.34;;;32.93;10.79
50105;BME280;47690;39.202;-77.198;2023-03-13T04:58:00;99852.22;;;32.89;11.37
50105;BME280;47690;39.202;-77.198;2023-03-13T05:00:53;99846.34;;;32.93;11.29
50105;BME280;47690;39.202;-77.198;2023-03-13T05:03:48;99838.50;;;33.00;11.02
50105;BME280;47690;39.202;-77.198;2023-03-13T05:06:34;99845.19;;;32.96;11.02
50105;BME280;47690;39.202;-77.198;2023-03-13T05:09:05;99845.09;;;32.81;11.22
50105;BME280;47690;39.202;-77.198;2023-03-13T05:11:55;99846.31;;;32.78;11.47
50105;BME280;47690;39.202;-77.198;2023-03-13T05:15:03;99846.88;;;33.12;11.31
50105;BME280;47690;39.202;-77.198;2023-03-13T05:17:51;99846.19;;;32.95;10.88
50105;BME280;47690;39.202;-77.198;2023-03-13T05:20:29;99855.31;;;33.01;11.43
50105;BME280;47690;39.202;-77.198;2023-03-13T05:23:16;99852.34;;;33.49;10.46
50105;BME280;47690;39.202;-77.198;2023-03-13T05:25:59;99846.34;;;33.32;10.94
50105;BME280;47690;39.202;-77.198;2023-03-13T05:28:50;99836.84;;;33.29;10.76
50105;BME280;47690;39.202;-77.198;2023-03-13T05:31:31;99833.53;;;33.27;11.06
50105;BME280;47690;39.202;-77.198;2023-03-13T05:34:21;99836.53;;;33.62;10.75
50105;BME280;47690;39.202;-77.198;2023-03-13T05:36:53;99832.16;;;33.16;11.32
50105;BME280;47690;39.202;-77.198;2023-03-13T05:39:41;99826.25;;;33.21;10.79
50105;BME280;47690;39.202;-77.198;2023-03-13T05:42:36;99821.50;;;33.31;11.24
50105;BME280;47690;39.202;-77.198;2023-03-13T05:45:19;99826.63;;;33.18;11.05
50105;BME280;47690;39.202;-77.198;2023-03-13T05:48:08;99821.38;;;33.24;11.17
50105;BME280;47690;39.202;-77.198;2023-03-13T05:50:59;99823.44;;;33.37;10.68
50105;BME280;47690;39.202;-77.198;2023-03-13T05:54:03;99827.66;;;33.47;10.94
50105;BME280;47690;39.202;-77.198;2023-03-13T05:56:59;99818.50;;;34.38;10.53
50105;BME280;47690;39.202;-77.198;2023-03-13T05:59:54;99808.06;;;33.85;10.40
50105;BME280;47690;39.202;-77.198;2023-03-13T06:02:54;99818.28;;;33.66;10.90
50105;BME280;47690;39.202;-77.198;2023-03-13T06:05:31;99815.91;;;33.56;10.78
50105;BME280;47690;39.202;-77.198;2023-03-13T06:08:01;99809.69;;;33.25;10.91
50105;BME280;47690;39.202;-77.198;2023-03-13T06:10:30;99806.66;;;33.14;11.53
50105;BME280;47690;39.202;-77.198;2023-03-13T06:12:59;99810.88;;;33.08;11.52
50105;BME280;47690;39.202;-77.198;2023-03-13T06:15:54;99800.94;;;33.02;11.37
50105;BME280;47690;39.202;-77.198;2023-03-13T06:19:00;99802.53;;;33.11;11.47
50105;BME280;47690;39.202;-77.198;2023-03-13T06:21:29;99797.81;;;32.98;11.22
50105;BME280;47690;39.202;-77.198;2023-03-13T06:23:58;99789.50;;;32.93;11.00
50105;BME280;47690;39.202;-77.198;2023-03-13T06:26:27;99795.34;;;32.96;11.30
50105;BME280;47690;39.202;-77.198;2023-03-13T06:28:59;99794.84;;;32.93;11.70
50105;BME280;47690;39.202;-77.198;2023-03-13T06:31:28;99792.53;;;32.90;11.59
50105;BME280;47690;39.202;-77.198;2023-03-13T06:33:58;99796.22;;;32.89;11.78
50105;BME280;47690;39.202;-77.198;2023-03-13T06:36:27;99795.34;;;32.96;10.94
50105;BME280;47690;39.202;-77.198;2023-03-13T06:38:56;99790.81;;;32.97;11.11
50105;BME280;47690;39.202;-77.198;2023-03-13T06:41:28;99778.13;;;32.99;11.24
50105;BME280;47690;39.202;-77.198;2023-03-13T06:43:58;99779.06;;;33.06;11.34
50105;BME280;47690;39.202;-77.198;2023-03-13T06:46:27;99775.41;;;33.07;11.19
50105;BME280;47690;39.202;-77.198;2023-03-13T06:48:57;99777.84;;;33.09;11.39
50105;BME280;47690;39.202;-77.198;2023-03-13T06:51:28;99775.09;;;33.17;11.25
50105;BME280;47690;39.202;-77.198;2023-03-13T06:53:57;99765.91;;;33.05;11.34
50105;BME280;47690;39.202;-77.198;2023-03-13T06:56:29;99767.44;;;32.99;11.38
50105;BME280;47690;39.202;-77.198;2023-03-13T06:58:59;99769.13;;;33.00;11.36
50105;BME280;47690;39.202;-77.198;2023-03-13T07:01:28;99765.44;;;33.01;11.51
50105;BME280;47690;39.202;-77.198;2023-03-13T07:03:57;99762.13;;;33.14;11.29
50105;BME280;47690;39.202;-77.198;2023-03-13T07:06:28;99759.44;;;32.99;11.84
50105;BME280;47690;39.202;-77.198;2023-03-13T07:08:58;99755.34;;;32.96;11.37
50105;BME280;47690;39.202;-77.198;2023-03-13T07:11:27;99750.81;;;32.97;11.67
50105;BME280;47690;39.202;-77.198;2023-03-13T07:13:56;99745.31;;;32.99;11.35
50105;BME280;47690;39.202;-77.198;2023-03-13T07:16:43;99745.75;;;33.02;11.12
50105;BME280;47690;39.202;-77.198;2023-03-13T07:19:13;99741.16;;;32.96;11.57
50105;BME280;47690;39.202;-77.198;2023-03-13T07:21:43;99743.28;;;33.01;11.74
50105;BME280;47690;39.202;-77.198;2023-03-13T07:24:11;99737.94;;;33.01;11.62
50105;BME280;47690;39.202;-77.198;2023-03-13T07:26:40;99741.53;;;33.08;11.01
50105;BME280;47690;39.202;-77.198;2023-03-13T07:29:29;99720.53;;;33.20;11.64
50105;BME280;47690;39.202;-77.198;2023-03-13T07:31:58;99713.47;;;33.12;11.47
50105;BME280;47690;39.202;-77.198;2023-03-13T07:34:29;99713.03;;;33.08;11.29
50105;BME280;47690;39.202;-77.198;2023-03-13T07:36:59;99709.59;;;33.45;10.96
50105;BME280;47690;39.202;-77.198;2023-03-13T07:39:28;99709.28;;;33.70;10.84
50105;BME280;47690;39.202;-77.198;2023-03-13T07:41:58;99714.44;;;33.56;11.39
50105;BME280;47690;39.202;-77.198;2023-03-13T07:44:28;99711.28;;;33.16;10.70
50105;BME280;47690;39.202;-77.198;2023-03-13T07:47:00;99703.09;;;33.02;11.77
50105;BME280;47690;39.202;-77.198;2023-03-13T07:49:29;99704.34;;;33.06;11.25
50105;BME280;47690;39.202;-77.198;2023-03-13T07:51:58;99706.56;;;33.03;11.68
50105;BME280;47690;39.202;-77.198;2023-03-13T07:54:27;99698.50;;;33.11;11.17
50105;BME280;47690;39.202;-77.198;2023-03-13T07:56:56;99702.81;;;33.12;11.47
50105;BME280;47690;39.202;-77.198;2023-03-13T07:59:26;99695.50;;;33.21;11.59
50105;BME280;47690;39.202;-77.198;2023-03-13T08:01:56;99695.16;;;33.24;11.67
50105;BME280;47690;39.202;-77.198;2023-03-13T08:04:27;99700.50;;;33.24;11.95
50105;BME280;47690;39.202;-77.198;2023-03-13T08:06:56;99690.28;;;33.28;11.40
50105;BME280;47690;39.202;-77.198;2023-03-13T08:09:26;99688.72;;;33.18;11.64
50105;BME280;47690;39.202;-77.198;2023-03-13T08:11:56;99696.47;;;33.13;11.58
50105;BME280;47690;39.202;-77.198;2023-03-13T08:14:25;99693.19;;;33.48;11.36
50105;BME280;47690;39.202;-77.198;2023-03-13T08:16:58;99695.94;;;33.55;11.22
50105;BME280;47690;39.202;-77.198;2023-03-13T08:19:28;99692.03;;;33.20;11.14
50105;BME280;47690;39.202;-77.198;2023-03-13T08:21:57;99677.16;;;33.11;11.34
50105;BME280;47690;39.202;-77.198;2023-03-13T08:24:26;99672.34;;;33.06;11.73
50105;BME280;47690;39.202;-77.198;2023-03-13T08:26:56;99676.03;;;33.05;11.69
50105;BME280;47690;39.202;-77.198;2023-03-13T08:29:26;99680.63;;;33.11;11.46
50105;BME280;47690;39.202;-77.198;2023-03-13T08:31:56;99677.31;;;33.09;11.14
50105;BME280;47690;39.202;-77.198;2023-03-13T08:34:28;99681.00;;;33.08;11.54
50105;BME280;47690;39.202;-77.198;2023-03-13T08:36:58;99677.69;;;33.06;11.38
50105;BME280;47690;39.202;-77.198;2023-03-13T08:39:30;99679.16;;;33.09;11.22
50105;BME280;47690;39.202;-77.198;2023-03-13T08:41:59;99679.81;;;33.11;11.87
50105;BME280;47690;39.202;-77.198;2023-03-13T08:44:28;99682.28;;;33.13;11.62
50105;BME280;47690;39.202;-77.198;2023-03-13T08:46:57;99680.63;;;33.11;11.76
50105;BME280;47690;39.202;-77.198;2023-03-13T08:49:27;99690.03;;;33.07;11.80
50105;BME280;47690;39.202;-77.198;2023-03-13T08:51:59;99687.06;;;33.17;11.54
50105;BME280;47690;39.202;-77.198;2023-03-13T08:54:28;99694.88;;;33.34;11.75
50105;BME280;47690;39.202;-77.198;2023-03-13T08:56:58;99683.00;;;33.21;11.79
50105;BME280;47690;39.202;-77.198;2023-03-13T08:59:28;99688.34;;;33.21;11.71
50105;BME280;47690;39.202;-77.198;2023-03-13T09:01:57;99690.94;;;33.15;11.62
50105;BME280;47690;39.202;-77.198;2023-03-13T09:04:29;99690.56;;;33.18;11.38
50105;BME280;47690;39.202;-77.198;2023-03-13T09:06:58;99694.53;;;33.22;11.39
50105;BME280;47690;39.202;-77.198;2023-03-13T09:09:27;99691.47;;;33.25;11.66
50105;BME280;47690;39.202;-77.198;2023-03-13T09:11:56;99697.09;;;33.15;11.62
50105;BME280;47690;39.202;-77.198;2023-03-13T09:14:25;99694.06;;;33.18;11.59
50105;BME280;47690;39.202;-77.198;2023-03-13T09:16:54;99695.06;;;33.17;11.66
50105;BME280;47690;39.202;-77.198;2023-03-13T09:19:24;99698.28;;;33.13;11.34
50105;BME280;47690;39.202;-77.198;2023-03-13T09:21:54;99702.25;;;33.17;11.18
50105;BME280;47690;39.202;-77.198;2023-03-13T09:24:25;99698.91;;;33.30;11.42
50105;BME280;47690;39.202;-77.198;2023-03-13T09:26:55;99700.13;;;33.27;11.45
50105;BME280;47690;39.202;-77.198;2023-03-13T09:29:28;99696.53;;;33.35;11.36
50105;BME280;47690;39.202;-77.198;2023-03-13T09:31:58;99699.47;;;33.25;11.64
50105;BME280;47690;39.202;-77.198;2023-03-13T09:34:28;99700.41;;;33.17;11.71
50105;BME280;47690;39.202;-77.198;2023-03-13T09:36:56;99705.09;;;33.15;11.67
50105;BME280;47690;39.202;-77.198;2023-03-13T09:39:26;99701.22;;;33.03;12.01
50105;BME280;47690;39.202;-77.198;2023-03-13T09:42:47;99696.72;;;33.33;12.16
50105;BME280;47690;39.202;-77.198;2023-03-13T09:45:38;99700.47;;;33.39;11.97
50105;BME280;47690;39.202;-77.198;2023-03-13T09:51:36;99708.03;;;33.50;11.90
50105;BME280;47690;39.202;-77.198;2023-03-13T09:54:14;99699.09;;;33.28;11.42
50105;BME280;47690;39.202;-77.198;2023-03-13T09:56:54;99699.09;;;33.28;11.90
50105;BME280;47690;39.202;-77.198;2023-03-13T10:02:04;99697.19;;;33.22;11.99
50105;BME280;47690;39.202;-77.198;2023-03-13T10:04:46;99696.75;;;33.18;11.68
50105;BME280;47690;39.202;-77.198;2023-03-13T10:07:17;99696.28;;;33.15;11.83
50105;BME280;47690;39.202;-77.198;2023-03-13T10:09:48;99697.00;;;33.23;11.58
50105;BME280;47690;39.202;-77.198;2023-03-13T10:12:19;99700.03;;;33.20;11.41
50105;BME280;47690;39.202;-77.198;2023-03-13T10:15:19;99696.53;;;33.20;11.74
50105;BME280;47690;39.202;-77.198;2023-03-13T10:17:49;99701.31;;;33.24;11.59
50105;BME280;47690;39.202;-77.198;2023-03-13T10:20:33;99697.91;;;33.31;12.03
50105;BME280;47690;39.202;-77.198;2023-03-13T10:25:49;99694.22;;;33.32;11.38
50105;BME280;47690;39.202;-77.198;2023-03-13T10:28:20;99696.44;;;33.28;11.38
50105;BME280;47690;39.202;-77.198;2023-03-13T10:31:07;99701.94;;;33.42;11.63
50105;BME280;47690;39.202;-77.198;2023-03-13T10:33:39;99701.75;;;33.43;11.70
50105;BME280;47690;39.202;-77.198;2023-03-13T10:36:11;99712.78;;;33.40;11.32
50105;BME280;47690;39.202;-77.198;2023-03-13T10:38:52;99718.66;;;33.65;11.47
50105;BME280;47690;39.202;-77.198;2023-03-13T10:41:28;99723.56;;;33.84;11.25
50105;BME280;47690;39.202;-77.198;2023-03-13T10:44:06;99717.34;;;33.76;11.39
50105;BME280;47690;39.202;-77.198;2023-03-13T10:46:45;99713.84;;;33.76;11.42
50105;BME280;47690;39.202;-77.198;2023-03-13T10:49:20;99710.91;;;33.71;11.51
50105;BME280;47690;39.202;-77.198;2023-03-13T10:52:26;99709.81;;;34.24;11.47
50105;BME280;47690;39.202;-77.198;2023-03-13T10:55:05;99717.97;;;34.15;11.26
50105;BME280;47690;39.202;-77.198;2023-03-13T10:57:36;99721.34;;;34.24;11.29
50105;BME280;47690;39.202;-77.198;2023-03-13T11:00:34;99718.97;;;34.36;11.41
50105;BME280;47690;39.202;-77.198;2023-03-13T11:03:17;99724.72;;;34.33;11.21
50105;BME280;47690;39.202;-77.198;2023-03-13T11:05:56;99728.63;;;34.37;11.33
50105;BME280;47690;39.202;-77.198;2023-03-13T11:08:35;99725.34;;;34.35;11.17
50105;BME280;47690;39.202;-77.198;2023-03-13T11:11:18;99727.91;;;34.50;11.08
50105;BME280;47690;39.202;-77.198;2023-03-13T11:13:47;99718.22;;;34.42;11.02
50105;BME280;47690;39.202;-77.198;2023-03-13T11:16:25;99714.38;;;34.30;11.03
50105;BME280;47690;39.202;-77.198;2023-03-13T11:19:28;99704.97;;;34.56;11.29
50105;BME280;47690;39.202;-77.198;2023-03-13T11:22:29;99713.34;;;34.53;11.16
50105;BME280;47690;39.202;-77.198;2023-03-13T11:31:00;99702.22;;;33.84;12.00
50105;BME280;47690;39.202;-77.198;2023-03-13T11:33:38;99706.41;;;33.71;11.99
50105;BME280;47690;39.202;-77.198;2023-03-13T11:39:24;99712.41;;;34.39;11.38
50105;BME280;47690;39.202;-77.198;2023-03-13T11:59:27;99694.66;;;33.87;11.63
50105;BME280;47690;39.202;-77.198;2023-03-13T12:04:43;99701.97;;;33.78;11.52
50105;BME280;47690;39.202;-77.198;2023-03-13T12:07:23;99693.31;;;33.76;11.67
50105;BME280;47690;39.202;-77.198;2023-03-13T12:09:56;99696.66;;;33.63;11.64
50105;BME280;47690;39.202;-77.198;2023-03-13T12:12:45;99703.44;;;33.81;11.98
50105;BME280;47690;39.202;-77.198;2023-03-13T12:15:28;99700.94;;;33.58;11.86
50105;BME280;47690;39.202;-77.198;2023-03-13T12:26:16;99697.41;;;33.94;11.91
50105;BME280;47690;39.202;-77.198;2023-03-13T12:32:39;99707.97;;;34.24;11.45
50105;BME280;47690;39.202;-77.198;2023-03-13T12:38:18;99705.50;;;34.23;11.79
50105;BME280;47690;39.202;-77.198;2023-03-13T12:43:44;99711.47;;;34.03;11.35
50105;BME280;47690;39.202;-77.198;2023-03-13T12:46:46;99711.00;;;34.21;11.65
50105;BME280;47690;39.202;-77.198;2023-03-13T12:49:35;99718.22;;;34.42;11.57
50105;BME280;47690;39.202;-77.198;2023-03-13T13:00:24;99716.03;;;34.31;11.65
50105;BME280;47690;39.202;-77.198;2023-03-13T13:08:37;99726.06;;;34.22;11.34
50105;BME280;47690;39.202;-77.198;2023-03-13T13:19:44;99728.06;;;34.20;11.37
50105;BME280;47690;39.202;-77.198;2023-03-13T13:32:47;99729.19;;;34.83;11.37
50105;BME280;47690;39.202;-77.198;2023-03-13T13:35:26;99738.84;;;34.77;11.59
50105;BME280;47690;39.202;-77.198;2023-03-13T13:43:49;99724.63;;;34.77;11.41
50105;BME280;47690;39.202;-77.198;2023-03-13T13:46:43;99732.38;;;34.65;11.65
50105;BME280;47690;39.202;-77.198;2023-03-13T13:49:17;99733.97;;;34.87;11.53
50105;BME280;47690;39.202;-77.198;2023-03-13T13:57:18;99731.84;;;34.76;11.42
50105;BME280;47690;39.202;-77.198;2023-03-13T14:00:19;99730.72;;;34.92;11.52
50105;BME280;47690;39.202;-77.198;2023-03-13T14:02:55;99728.66;;;34.94;11.28
50105;BME280;47690;39.202;-77.198;2023-03-13T14:05:30;99727.38;;;34.83;11.61
50105;BME280;47690;39.202;-77.198;2023-03-13T14:13:41;99728.06;;;34.92;11.10
50105;BME280;47690;39.202;-77.198;2023-03-13T14:16:25;99720.16;;;34.84;11.75
50105;BME280;47690;39.202;-77.198;2023-03-13T14:18:56;99719.34;;;34.83;11.64
50105;BME280;47690;39.202;-77.198;2023-03-13T14:21:25;99718.41;;;34.69;11.64
50105;BME280;47690;39.202;-77.198;2023-03-13T14:23:55;99723.75;;;34.69;11.52
50105;BME280;47690;39.202;-77.198;2023-03-13T14:26:26;99727.88;;;34.65;11.76
50105;BME280;47690;39.202;-77.198;2023-03-13T14:28:59;99728.66;;;34.66;11.50
50105;BME280;47690;39.202;-77.198;2023-03-13T14:31:37;99732.19;;;34.66;11.76
50105;BME280;47690;39.202;-77.198;2023-03-13T14:34:10;99737.50;;;34.59;11.84
50105;BME280;47690;39.202;-77.198;2023-03-13T14:36:56;99720.47;;;34.67;11.85
50105;BME280;47690;39.202;-77.198;2023-03-13T14:39:45;99713.72;;;34.71;11.73
50105;BME280;47690;39.202;-77.198;2023-03-13T14:42:17;99718.56;;;34.61;11.77
50105;BME280;47690;39.202;-77.198;2023-03-13T14:44:49;99718.81;;;34.66;11.59
50105;BME280;47690;39.202;-77.198;2023-03-13T14:47:24;99716.38;;;34.71;11.85
50105;BME280;47690;39.202;-77.198;2023-03-13T14:49:59;99713.59;;;34.86;11.56
50105;BME280;47690;39.202;-77.198;2023-03-13T14:52:31;99709.94;;;34.94;11.56
50105;BME280;47690;39.202;-77.198;2023-03-13T14:55:27;99701.44;;;35.19;11.72
50105;BME280;47690;39.202;-77.198;2023-03-13T14:58:03;99704.47;;;35.09;11.47
50105;BME280;47690;39.202;-77.198;2023-03-13T15:00:37;99697.19;;;34.96;11.50
50105;BME280;47690;39.202;-77.198;2023-03-13T15:03:18;99704.84;;;35.06;11.66
50105;BME280;47690;39.202;-77.198;2023-03-13T15:06:12;99704.47;;;35.09;11.55
50105;BME280;47690;39.202;-77.198;2023-03-13T15:08:44;99696.56;;;34.94;11.63